Terminal Aerodrome Forecast
Issued by NWS

Home | Current Version | Previous Version | Text Only | Print | Product List | Glossary On
Versions: 1 2 3 4 5 6 7 8 9 10 11 12 13 14 15 16 17 18 19 20 21 22
000
FTUS41 KCTP 131138
TAFLNS
TAF
KLNS 131138Z 1312/1412 29018G28KT P6SM SCT060
     FM132100 27012KT P6SM BKN080
     FM140300 19006KT 3SM -SN BR OVC040=

USA.gov is the U.S. government's official web portal to all federal, state and local government web resources and services.